OCN300 EDDF-ENEV
Flight info
| Callsign | OCN300 |
|---|---|
| Flight time | 2h 55m |
| Altitude | 35000 |
| Route | MARUN3W/25C MARUN Y150 TOLGI DCT ALASA DCT REGMA DCT OLGUV DCT DETMU DCT PENNO |
| Aircraft | A320/M-SDE3FGHIRWY/LB1 |
Departure
| Time | 2026-05-07 07:37 |
|---|---|
| Airport | Frankfurt Main Airport (EDDF) |
Arrival
| Time | 2026-05-07 10:32 |
|---|---|
| Airport | Harstad/Narvik Airport (ENEV) |
| Time | Latitude | Longitude | Altitude | Speed | Heading |
|---|---|---|---|---|---|
| 2026-05-07 07:20 | 50.04093 | 8.55754 | 348 ft | 0 kts | 159° |
| 2026-05-07 07:31 | 50.04082 | 8.55761 | 348 ft | 5 kts | 159° |
| 2026-05-07 07:31 | 50.04029 | 8.55801 | 346 ft | 10 kts | 122° |
| 2026-05-07 07:32 | 50.04040 | 8.55915 | 348 ft | 11 kts | 69° |
| 2026-05-07 07:32 | 50.04069 | 8.56036 | 349 ft | 13 kts | 70° |
| 2026-05-07 07:32 | 50.04105 | 8.56187 | 352 ft | 15 kts | 70° |
| 2026-05-07 07:32 | 50.04148 | 8.56367 | 354 ft | 20 kts | 70° |
| 2026-05-07 07:33 | 50.04203 | 8.56599 | 356 ft | 23 kts | 69° |
| 2026-05-07 07:33 | 50.04259 | 8.56830 | 361 ft | 21 kts | 69° |
| 2026-05-07 07:33 | 50.04310 | 8.57033 | 364 ft | 19 kts | 70° |
| 2026-05-07 07:33 | 50.04355 | 8.57229 | 365 ft | 19 kts | 71° |
| 2026-05-07 07:34 | 50.04402 | 8.57429 | 364 ft | 20 kts | 70° |
| 2026-05-07 07:34 | 50.04453 | 8.57642 | 363 ft | 21 kts | 70° |
| 2026-05-07 07:34 | 50.04503 | 8.57857 | 368 ft | 21 kts | 70° |
| 2026-05-07 07:34 | 50.04555 | 8.58070 | 371 ft | 20 kts | 70° |
| 2026-05-07 07:35 | 50.04604 | 8.58273 | 373 ft | 19 kts | 69° |
| 2026-05-07 07:35 | 50.04652 | 8.58472 | 368 ft | 12 kts | 72° |
| 2026-05-07 07:35 | 50.04616 | 8.58577 | 364 ft | 14 kts | 158° |
| 2026-05-07 07:35 | 50.04522 | 8.58629 | 360 ft | 10 kts | 171° |
| 2026-05-07 07:36 | 50.04480 | 8.58565 | 362 ft | 8 kts | 250° |
| 2026-05-07 07:36 | 50.04416 | 8.58293 | 369 ft | 60 kts | 250° |
| 2026-05-07 07:36 | 50.04182 | 8.57316 | 359 ft | 129 kts | 250° |
| 2026-05-07 07:36 | 50.03805 | 8.55740 | 518 ft | 169 kts | 252° |
| 2026-05-07 07:37 | 50.03400 | 8.54045 | 1199 ft | 172 kts | 252° |
| 2026-05-07 07:37 | 50.02992 | 8.52309 | 1986 ft | 174 kts | 254° |
| 2026-05-07 07:37 | 50.02569 | 8.50558 | 2583 ft | 179 kts | 245° |
| 2026-05-07 07:37 | 50.01761 | 8.49043 | 3093 ft | 192 kts | 222° |
| 2026-05-07 07:38 | 50.00559 | 8.48075 | 3683 ft | 201 kts | 198° |
| 2026-05-07 07:38 | 49.99189 | 8.47682 | 4329 ft | 204 kts | 191° |
| 2026-05-07 07:38 | 49.97782 | 8.47407 | 4991 ft | 206 kts | 189° |
| 2026-05-07 07:38 | 49.96370 | 8.47110 | 5647 ft | 207 kts | 193° |
| 2026-05-07 07:39 | 49.94976 | 8.46583 | 6307 ft | 208 kts | 198° |
| 2026-05-07 07:39 | 49.93590 | 8.45964 | 6983 ft | 209 kts | 200° |
| 2026-05-07 07:39 | 49.92244 | 8.45181 | 7656 ft | 207 kts | 216° |
| 2026-05-07 07:39 | 49.91223 | 8.43698 | 8329 ft | 202 kts | 240° |
| 2026-05-07 07:40 | 49.90681 | 8.41751 | 8991 ft | 198 kts | 262° |
| 2026-05-07 07:40 | 49.90656 | 8.39657 | 9647 ft | 197 kts | 283° |
| 2026-05-07 07:40 | 49.91217 | 8.37761 | 10179 ft | 202 kts | 314° |
| 2026-05-07 07:40 | 49.92453 | 8.36585 | 10553 ft | 219 kts | 335° |
| 2026-05-07 07:41 | 49.93872 | 8.35601 | 10892 ft | 238 kts | 335° |
| 2026-05-07 07:41 | 49.95453 | 8.34468 | 11208 ft | 259 kts | 334° |
| 2026-05-07 07:41 | 49.97154 | 8.33244 | 11635 ft | 277 kts | 336° |
| 2026-05-07 07:41 | 49.99060 | 8.32591 | 12002 ft | 297 kts | 2° |
| 2026-05-07 07:42 | 50.01064 | 8.33560 | 12652 ft | 308 kts | 25° |
| 2026-05-07 07:42 | 50.02924 | 8.35239 | 13434 ft | 311 kts | 29° |
| 2026-05-07 07:42 | 50.04781 | 8.36995 | 14162 ft | 314 kts | 28° |
| 2026-05-07 07:42 | 50.06646 | 8.38704 | 14866 ft | 317 kts | 28° |
| 2026-05-07 07:43 | 50.08570 | 8.40410 | 15565 ft | 320 kts | 27° |
| 2026-05-07 07:43 | 50.10500 | 8.42081 | 16234 ft | 323 kts | 27° |
| 2026-05-07 07:43 | 50.12477 | 8.43769 | 16886 ft | 326 kts | 26° |
| 2026-05-07 07:43 | 50.14478 | 8.45462 | 17520 ft | 329 kts | 26° |
| 2026-05-07 07:44 | 50.16473 | 8.47143 | 18124 ft | 333 kts | 27° |
| 2026-05-07 07:44 | 50.18528 | 8.48871 | 18748 ft | 336 kts | 26° |
| 2026-05-07 07:44 | 50.20586 | 8.50600 | 19370 ft | 338 kts | 26° |
| 2026-05-07 07:44 | 50.22668 | 8.52346 | 19978 ft | 341 kts | 26° |
| 2026-05-07 07:45 | 50.24733 | 8.54079 | 20564 ft | 344 kts | 26° |
| 2026-05-07 07:45 | 50.26849 | 8.55856 | 21139 ft | 347 kts | 26° |
| 2026-05-07 07:45 | 50.28976 | 8.57644 | 21692 ft | 350 kts | 27° |
| 2026-05-07 07:45 | 50.31120 | 8.59448 | 22237 ft | 353 kts | 27° |
| 2026-05-07 07:46 | 50.33279 | 8.61266 | 22776 ft | 356 kts | 27° |
| 2026-05-07 07:46 | 50.35462 | 8.63107 | 23301 ft | 358 kts | 27° |
| 2026-05-07 07:46 | 50.37658 | 8.64962 | 23809 ft | 361 kts | 27° |
| 2026-05-07 07:46 | 50.39881 | 8.66841 | 24298 ft | 364 kts | 27° |
| 2026-05-07 07:47 | 50.42113 | 8.68730 | 24769 ft | 368 kts | 27° |
| 2026-05-07 07:47 | 50.44334 | 8.70612 | 25256 ft | 370 kts | 27° |
| 2026-05-07 07:47 | 50.46600 | 8.72530 | 25737 ft | 373 kts | 27° |
| 2026-05-07 07:47 | 50.48880 | 8.74464 | 26214 ft | 375 kts | 28° |
| 2026-05-07 07:48 | 50.51175 | 8.76412 | 26682 ft | 377 kts | 28° |
| 2026-05-07 07:48 | 50.53484 | 8.78374 | 27151 ft | 379 kts | 28° |
| 2026-05-07 07:48 | 50.55801 | 8.80347 | 27595 ft | 381 kts | 28° |
| 2026-05-07 07:48 | 50.58132 | 8.82333 | 28004 ft | 384 kts | 28° |
| 2026-05-07 07:49 | 50.60479 | 8.84336 | 28428 ft | 386 kts | 28° |
| 2026-05-07 07:49 | 50.62838 | 8.86354 | 28839 ft | 388 kts | 28° |
| 2026-05-07 07:49 | 50.65212 | 8.88386 | 29198 ft | 391 kts | 28° |
| 2026-05-07 07:49 | 50.67604 | 8.90437 | 29551 ft | 394 kts | 28° |
| 2026-05-07 07:50 | 50.70010 | 8.92501 | 29924 ft | 396 kts | 28° |
| 2026-05-07 07:50 | 50.72429 | 8.94577 | 30294 ft | 398 kts | 28° |
| 2026-05-07 07:50 | 50.74858 | 8.96664 | 30656 ft | 400 kts | 28° |
| 2026-05-07 07:50 | 50.77296 | 8.98760 | 31008 ft | 401 kts | 28° |
| 2026-05-07 07:51 | 50.79751 | 9.00874 | 31302 ft | 404 kts | 28° |
| 2026-05-07 07:51 | 50.82182 | 9.02971 | 31548 ft | 406 kts | 28° |
| 2026-05-07 07:51 | 50.84660 | 9.05112 | 31777 ft | 409 kts | 28° |
| 2026-05-07 07:51 | 50.87162 | 9.07277 | 32004 ft | 412 kts | 28° |
| 2026-05-07 07:52 | 50.89679 | 9.09458 | 32224 ft | 414 kts | 28° |
| 2026-05-07 07:52 | 50.92211 | 9.11654 | 32439 ft | 416 kts | 28° |
| 2026-05-07 07:52 | 50.94747 | 9.13856 | 32624 ft | 419 kts | 28° |
| 2026-05-07 07:52 | 50.97308 | 9.16082 | 32808 ft | 421 kts | 28° |
| 2026-05-07 07:53 | 50.99878 | 9.18321 | 32995 ft | 423 kts | 28° |
| 2026-05-07 07:53 | 51.02428 | 9.20545 | 33171 ft | 425 kts | 28° |
| 2026-05-07 07:53 | 51.05022 | 9.22803 | 33339 ft | 428 kts | 28° |
| 2026-05-07 07:53 | 51.07675 | 9.24919 | 33508 ft | 430 kts | 24° |
| 2026-05-07 07:54 | 51.10419 | 9.26804 | 33686 ft | 432 kts | 21° |
| 2026-05-07 07:54 | 51.13238 | 9.28438 | 33859 ft | 433 kts | 18° |
| 2026-05-07 07:54 | 51.16123 | 9.29810 | 34030 ft | 435 kts | 14° |
| 2026-05-07 07:54 | 51.19064 | 9.30936 | 34198 ft | 437 kts | 12° |
| 2026-05-07 07:55 | 51.22034 | 9.31966 | 34328 ft | 439 kts | 11° |
| 2026-05-07 07:55 | 51.25025 | 9.32982 | 34487 ft | 441 kts | 11° |
| 2026-05-07 07:55 | 51.28025 | 9.34006 | 34638 ft | 443 kts | 11° |
| 2026-05-07 07:55 | 51.31032 | 9.35040 | 34812 ft | 444 kts | 11° |
| 2026-05-07 07:56 | 51.34049 | 9.36084 | 34938 ft | 446 kts | 11° |
| 2026-05-07 07:56 | 51.40094 | 9.38188 | 34952 ft | 446 kts | 11° |
| 2026-05-07 07:57 | 51.46138 | 9.40299 | 34979 ft | 446 kts | 11° |
| 2026-05-07 07:57 | 51.52174 | 9.42413 | 34978 ft | 445 kts | 11° |
| 2026-05-07 07:58 | 51.58214 | 9.44534 | 34972 ft | 446 kts | 12° |
| 2026-05-07 07:58 | 51.64265 | 9.46669 | 34986 ft | 446 kts | 12° |
| 2026-05-07 07:59 | 51.70309 | 9.48809 | 34974 ft | 446 kts | 12° |
| 2026-05-07 07:59 | 51.76310 | 9.50938 | 34978 ft | 446 kts | 11° |
| 2026-05-07 08:00 | 51.82362 | 9.52947 | 34967 ft | 445 kts | 8° |
| 2026-05-07 08:00 | 51.88486 | 9.54075 | 34981 ft | 444 kts | 4° |
| 2026-05-07 08:01 | 51.94628 | 9.54885 | 34983 ft | 444 kts | 4° |
| 2026-05-07 08:01 | 52.00779 | 9.55697 | 34996 ft | 444 kts | 4° |
| 2026-05-07 08:02 | 52.06930 | 9.56525 | 35003 ft | 445 kts | 4° |
| 2026-05-07 08:02 | 52.13115 | 9.57364 | 34993 ft | 445 kts | 4° |
| 2026-05-07 08:03 | 52.19257 | 9.58200 | 34991 ft | 444 kts | 4° |
| 2026-05-07 08:03 | 52.25392 | 9.59037 | 34994 ft | 444 kts | 4° |
| 2026-05-07 08:04 | 52.31525 | 9.59876 | 34999 ft | 444 kts | 4° |
| 2026-05-07 08:04 | 52.37658 | 9.60717 | 35011 ft | 444 kts | 4° |
| 2026-05-07 08:05 | 52.43785 | 9.61561 | 35016 ft | 443 kts | 4° |
| 2026-05-07 08:05 | 52.49906 | 9.62407 | 35014 ft | 443 kts | 4° |
| 2026-05-07 08:06 | 52.56029 | 9.63257 | 35013 ft | 443 kts | 4° |
| 2026-05-07 08:06 | 52.62112 | 9.64100 | 35027 ft | 443 kts | 4° |
| 2026-05-07 08:07 | 52.68233 | 9.64953 | 35025 ft | 443 kts | 4° |
| 2026-05-07 08:07 | 52.74361 | 9.65808 | 35028 ft | 443 kts | 4° |
| 2026-05-07 08:08 | 52.80524 | 9.66672 | 35037 ft | 443 kts | 4° |
| 2026-05-07 08:08 | 52.86607 | 9.67526 | 35034 ft | 443 kts | 4° |
| 2026-05-07 08:09 | 52.92725 | 9.68387 | 35032 ft | 442 kts | 4° |
| 2026-05-07 08:09 | 52.98841 | 9.69251 | 35036 ft | 442 kts | 4° |
| 2026-05-07 08:10 | 53.04968 | 9.70119 | 35037 ft | 442 kts | 4° |
| 2026-05-07 08:10 | 53.11095 | 9.70990 | 35038 ft | 442 kts | 4° |
| 2026-05-07 08:11 | 53.17215 | 9.71862 | 35037 ft | 443 kts | 4° |
| 2026-05-07 08:11 | 53.23341 | 9.72737 | 35038 ft | 443 kts | 4° |
| 2026-05-07 08:12 | 53.29458 | 9.73615 | 35031 ft | 442 kts | 4° |
| 2026-05-07 08:12 | 53.35522 | 9.74486 | 35038 ft | 442 kts | 4° |
| 2026-05-07 08:13 | 53.41630 | 9.75366 | 35039 ft | 442 kts | 4° |
| 2026-05-07 08:13 | 53.47741 | 9.76248 | 35039 ft | 442 kts | 4° |
| 2026-05-07 08:14 | 53.53854 | 9.77135 | 35044 ft | 443 kts | 4° |
| 2026-05-07 08:14 | 53.59971 | 9.78025 | 35046 ft | 443 kts | 4° |
| 2026-05-07 08:15 | 53.66082 | 9.78917 | 35043 ft | 442 kts | 4° |
| 2026-05-07 08:15 | 53.72194 | 9.79811 | 35046 ft | 442 kts | 4° |
| 2026-05-07 08:16 | 53.78304 | 9.80706 | 35045 ft | 443 kts | 4° |
| 2026-05-07 08:16 | 53.84417 | 9.81606 | 35046 ft | 443 kts | 4° |
| 2026-05-07 08:17 | 53.90528 | 9.82507 | 35042 ft | 443 kts | 4° |
| 2026-05-07 08:17 | 53.96641 | 9.83412 | 35041 ft | 443 kts | 4° |
| 2026-05-07 08:18 | 54.02758 | 9.84319 | 35043 ft | 443 kts | 4° |
| 2026-05-07 08:18 | 54.08868 | 9.85230 | 35049 ft | 442 kts | 4° |
| 2026-05-07 08:19 | 54.14972 | 9.86141 | 35052 ft | 441 kts | 4° |
| 2026-05-07 08:19 | 54.21061 | 9.87053 | 35056 ft | 441 kts | 4° |
| 2026-05-07 08:20 | 54.27151 | 9.87966 | 35062 ft | 441 kts | 4° |
| 2026-05-07 08:20 | 54.33247 | 9.88885 | 35067 ft | 442 kts | 4° |
| 2026-05-07 08:21 | 54.39342 | 9.89806 | 35068 ft | 441 kts | 4° |
| 2026-05-07 08:21 | 54.45435 | 9.90730 | 35069 ft | 441 kts | 4° |
| 2026-05-07 08:22 | 54.51522 | 9.91657 | 35071 ft | 440 kts | 4° |
| 2026-05-07 08:22 | 54.57606 | 9.92583 | 35070 ft | 440 kts | 4° |
| 2026-05-07 08:23 | 54.63660 | 9.93508 | 35072 ft | 440 kts | 4° |
| 2026-05-07 08:23 | 54.69736 | 9.94444 | 35075 ft | 440 kts | 4° |
| 2026-05-07 08:24 | 54.75810 | 9.95380 | 35072 ft | 440 kts | 4° |
| 2026-05-07 08:24 | 54.81879 | 9.96466 | 35076 ft | 440 kts | 7° |
| 2026-05-07 08:25 | 54.87907 | 9.98140 | 35077 ft | 441 kts | 8° |
| 2026-05-07 08:25 | 54.93924 | 9.99896 | 35079 ft | 440 kts | 8° |
| 2026-05-07 08:26 | 55.02945 | 10.02523 | 35078 ft | 439 kts | 8° |
| 2026-05-07 08:26 | 55.08946 | 10.04267 | 35085 ft | 439 kts | 8° |
| 2026-05-07 08:27 | 55.14958 | 10.06022 | 35093 ft | 439 kts | 8° |
| 2026-05-07 08:27 | 55.20954 | 10.07780 | 35087 ft | 438 kts | 7° |
| 2026-05-07 08:28 | 55.26939 | 10.09537 | 35084 ft | 438 kts | 7° |
| 2026-05-07 08:28 | 55.32916 | 10.11298 | 35084 ft | 437 kts | 7° |
| 2026-05-07 08:29 | 55.38889 | 10.13062 | 35084 ft | 437 kts | 7° |
| 2026-05-07 08:29 | 55.44847 | 10.14828 | 35075 ft | 436 kts | 7° |
| 2026-05-07 08:30 | 55.50802 | 10.16597 | 35080 ft | 436 kts | 7° |
| 2026-05-07 08:30 | 55.56750 | 10.18369 | 35087 ft | 435 kts | 7° |
| 2026-05-07 08:31 | 55.62679 | 10.20141 | 35082 ft | 434 kts | 7° |
| 2026-05-07 08:31 | 55.68594 | 10.21916 | 35079 ft | 432 kts | 7° |
| 2026-05-07 08:32 | 55.74495 | 10.23692 | 35078 ft | 431 kts | 7° |
| 2026-05-07 08:32 | 55.80384 | 10.25470 | 35080 ft | 431 kts | 7° |
| 2026-05-07 08:33 | 55.86267 | 10.27252 | 35074 ft | 430 kts | 7° |
| 2026-05-07 08:33 | 55.92131 | 10.29031 | 35071 ft | 429 kts | 7° |
| 2026-05-07 08:34 | 55.97985 | 10.30814 | 35076 ft | 429 kts | 7° |
| 2026-05-07 08:34 | 56.03825 | 10.32598 | 35074 ft | 427 kts | 7° |
| 2026-05-07 08:35 | 56.09650 | 10.34386 | 35063 ft | 426 kts | 7° |
| 2026-05-07 08:35 | 56.15459 | 10.36170 | 35061 ft | 426 kts | 7° |
| 2026-05-07 08:36 | 56.21283 | 10.37968 | 35059 ft | 427 kts | 7° |
| 2026-05-07 08:36 | 56.27106 | 10.39769 | 35068 ft | 426 kts | 7° |
| 2026-05-07 08:37 | 56.32926 | 10.41574 | 35064 ft | 426 kts | 7° |
| 2026-05-07 08:37 | 56.38748 | 10.43386 | 35070 ft | 426 kts | 7° |
| 2026-05-07 08:38 | 56.44568 | 10.45204 | 35069 ft | 426 kts | 6° |
| 2026-05-07 08:38 | 56.50385 | 10.47025 | 35067 ft | 426 kts | 6° |
| 2026-05-07 08:39 | 56.56202 | 10.48855 | 35066 ft | 426 kts | 6° |
| 2026-05-07 08:39 | 56.62009 | 10.50684 | 35065 ft | 425 kts | 6° |
| 2026-05-07 08:40 | 56.67818 | 10.52518 | 35068 ft | 426 kts | 6° |
| 2026-05-07 08:40 | 56.73627 | 10.54361 | 35069 ft | 426 kts | 6° |
| 2026-05-07 08:41 | 56.79440 | 10.56210 | 35070 ft | 426 kts | 6° |
| 2026-05-07 08:41 | 56.85294 | 10.58077 | 35069 ft | 426 kts | 6° |
| 2026-05-07 08:42 | 56.91094 | 10.59935 | 35069 ft | 425 kts | 6° |
| 2026-05-07 08:42 | 56.96896 | 10.61795 | 35071 ft | 425 kts | 6° |
| 2026-05-07 08:43 | 57.02699 | 10.63665 | 35071 ft | 425 kts | 6° |
| 2026-05-07 08:43 | 57.08465 | 10.65531 | 35071 ft | 424 kts | 6° |
| 2026-05-07 08:44 | 57.14259 | 10.67409 | 35074 ft | 425 kts | 6° |
| 2026-05-07 08:44 | 57.20054 | 10.69293 | 35075 ft | 425 kts | 6° |
| 2026-05-07 08:45 | 57.25850 | 10.71185 | 35073 ft | 425 kts | 6° |
| 2026-05-07 08:45 | 57.31645 | 10.73082 | 35074 ft | 425 kts | 6° |
| 2026-05-07 08:46 | 57.37429 | 10.74983 | 35075 ft | 424 kts | 6° |
| 2026-05-07 08:46 | 57.43210 | 10.76886 | 35076 ft | 424 kts | 6° |
| 2026-05-07 08:47 | 57.49001 | 10.78799 | 35076 ft | 425 kts | 5° |
| 2026-05-07 08:47 | 57.54795 | 10.80720 | 35076 ft | 425 kts | 5° |
| 2026-05-07 08:48 | 57.60590 | 10.82646 | 35076 ft | 425 kts | 5° |
| 2026-05-07 08:48 | 57.66386 | 10.84580 | 35078 ft | 425 kts | 5° |
| 2026-05-07 08:49 | 57.72170 | 10.86516 | 35078 ft | 424 kts | 5° |
| 2026-05-07 08:49 | 57.77952 | 10.88458 | 35078 ft | 425 kts | 5° |
| 2026-05-07 08:50 | 57.83741 | 10.90408 | 35078 ft | 425 kts | 5° |
| 2026-05-07 08:50 | 57.89532 | 10.92366 | 35078 ft | 425 kts | 5° |
| 2026-05-07 08:51 | 57.95332 | 10.94335 | 35079 ft | 426 kts | 4° |
| 2026-05-07 08:51 | 58.01136 | 10.96308 | 35080 ft | 425 kts | 4° |
| 2026-05-07 08:52 | 58.06932 | 10.98291 | 35076 ft | 425 kts | 4° |
| 2026-05-07 08:52 | 58.12733 | 11.00277 | 35070 ft | 425 kts | 4° |
| 2026-05-07 08:53 | 58.18529 | 11.02267 | 35062 ft | 425 kts | 4° |
| 2026-05-07 08:53 | 58.24326 | 11.04265 | 35059 ft | 426 kts | 4° |
| 2026-05-07 08:54 | 58.30130 | 11.06273 | 35061 ft | 426 kts | 4° |
| 2026-05-07 08:54 | 58.35937 | 11.08289 | 35059 ft | 426 kts | 4° |
| 2026-05-07 08:55 | 58.41737 | 11.10306 | 35056 ft | 425 kts | 4° |
| 2026-05-07 08:55 | 58.47536 | 11.12335 | 35059 ft | 426 kts | 4° |
| 2026-05-07 08:56 | 58.53342 | 11.14368 | 35063 ft | 426 kts | 4° |
| 2026-05-07 08:56 | 58.59153 | 11.16414 | 35054 ft | 427 kts | 4° |
| 2026-05-07 08:57 | 58.64979 | 11.18472 | 35064 ft | 429 kts | 3° |
| 2026-05-07 08:57 | 58.70813 | 11.20538 | 35055 ft | 428 kts | 3° |
| 2026-05-07 08:58 | 58.76644 | 11.22612 | 35060 ft | 429 kts | 3° |
| 2026-05-07 08:58 | 58.82477 | 11.24692 | 35047 ft | 428 kts | 3° |
| 2026-05-07 08:59 | 58.88295 | 11.26776 | 35052 ft | 427 kts | 3° |
| 2026-05-07 08:59 | 58.94111 | 11.28864 | 35036 ft | 428 kts | 3° |
| 2026-05-07 09:00 | 58.99946 | 11.30967 | 35048 ft | 429 kts | 3° |
| 2026-05-07 09:00 | 59.05799 | 11.33087 | 35021 ft | 430 kts | 3° |
| 2026-05-07 09:01 | 59.11691 | 11.35088 | 35028 ft | 428 kts | 0° |
| 2026-05-07 09:01 | 59.17556 | 11.36469 | 35017 ft | 425 kts | 359° |
| 2026-05-07 09:02 | 59.23406 | 11.37774 | 35031 ft | 426 kts | 359° |
| 2026-05-07 09:02 | 59.29273 | 11.39097 | 35036 ft | 427 kts | 359° |
| 2026-05-07 09:03 | 59.35122 | 11.40428 | 35049 ft | 427 kts | 359° |
| 2026-05-07 09:03 | 59.41016 | 11.41777 | 35047 ft | 429 kts | 359° |
| 2026-05-07 09:04 | 59.46914 | 11.43131 | 35044 ft | 429 kts | 359° |
| 2026-05-07 09:04 | 59.52817 | 11.44494 | 35046 ft | 429 kts | 359° |
| 2026-05-07 09:05 | 59.58721 | 11.45861 | 35043 ft | 429 kts | 359° |
| 2026-05-07 09:05 | 59.64635 | 11.47233 | 35029 ft | 431 kts | 359° |
| 2026-05-07 09:06 | 59.70555 | 11.48616 | 35031 ft | 430 kts | 359° |
| 2026-05-07 09:06 | 59.76483 | 11.50000 | 35041 ft | 431 kts | 359° |
| 2026-05-07 09:07 | 59.82399 | 11.51393 | 35031 ft | 430 kts | 359° |
| 2026-05-07 09:07 | 59.88327 | 11.52789 | 35012 ft | 431 kts | 359° |
| 2026-05-07 09:08 | 59.94255 | 11.54192 | 35036 ft | 431 kts | 359° |
| 2026-05-07 09:08 | 60.00190 | 11.55601 | 35015 ft | 432 kts | 359° |
| 2026-05-07 09:09 | 60.06139 | 11.57016 | 35024 ft | 434 kts | 359° |
| 2026-05-07 09:09 | 60.12101 | 11.58441 | 35055 ft | 433 kts | 359° |
| 2026-05-07 09:10 | 60.18057 | 11.59873 | 35021 ft | 434 kts | 359° |
| 2026-05-07 09:10 | 60.24037 | 11.61313 | 35029 ft | 435 kts | 359° |
| 2026-05-07 09:11 | 60.30019 | 11.62759 | 35030 ft | 435 kts | 359° |
| 2026-05-07 09:11 | 60.36001 | 11.64210 | 35038 ft | 436 kts | 359° |
| 2026-05-07 09:12 | 60.42021 | 11.65677 | 35031 ft | 437 kts | 0° |
| 2026-05-07 09:12 | 60.48038 | 11.67147 | 35006 ft | 438 kts | 0° |
| 2026-05-07 09:13 | 60.54058 | 11.68625 | 35000 ft | 438 kts | 0° |
| 2026-05-07 09:13 | 60.60081 | 11.70107 | 35001 ft | 439 kts | 0° |
| 2026-05-07 09:14 | 60.66124 | 11.71601 | 35018 ft | 440 kts | 0° |
| 2026-05-07 09:14 | 60.72175 | 11.73102 | 35019 ft | 441 kts | 1° |
| 2026-05-07 09:15 | 60.78235 | 11.74615 | 35024 ft | 441 kts | 1° |
| 2026-05-07 09:15 | 60.84293 | 11.76129 | 35014 ft | 441 kts | 1° |
| 2026-05-07 09:16 | 60.90353 | 11.77653 | 35019 ft | 441 kts | 1° |
| 2026-05-07 09:16 | 60.96420 | 11.79183 | 35015 ft | 442 kts | 1° |
| 2026-05-07 09:17 | 61.02512 | 11.80722 | 35008 ft | 444 kts | 1° |
| 2026-05-07 09:17 | 61.08611 | 11.82271 | 35015 ft | 444 kts | 1° |
| 2026-05-07 09:18 | 61.14725 | 11.83831 | 35016 ft | 444 kts | 1° |
| 2026-05-07 09:18 | 61.20822 | 11.85391 | 35005 ft | 444 kts | 1° |
| 2026-05-07 09:19 | 61.26919 | 11.86957 | 34999 ft | 443 kts | 1° |
| 2026-05-07 09:19 | 61.33021 | 11.88531 | 35001 ft | 445 kts | 1° |
| 2026-05-07 09:20 | 61.39136 | 11.90113 | 34996 ft | 445 kts | 1° |
| 2026-05-07 09:20 | 61.45253 | 11.91706 | 34988 ft | 445 kts | 1° |
| 2026-05-07 09:21 | 61.51371 | 11.93303 | 34993 ft | 446 kts | 1° |
| 2026-05-07 09:21 | 61.57488 | 11.94908 | 34978 ft | 445 kts | 1° |
| 2026-05-07 09:22 | 61.63562 | 11.96503 | 34978 ft | 445 kts | 1° |
| 2026-05-07 09:22 | 61.69687 | 11.98122 | 34979 ft | 447 kts | 1° |
| 2026-05-07 09:23 | 61.75831 | 11.99751 | 34970 ft | 448 kts | 1° |
| 2026-05-07 09:23 | 61.81985 | 12.01391 | 34978 ft | 447 kts | 1° |
| 2026-05-07 09:24 | 61.88134 | 12.03035 | 34978 ft | 448 kts | 1° |
| 2026-05-07 09:24 | 61.94277 | 12.04685 | 34993 ft | 447 kts | 2° |
| 2026-05-07 09:25 | 62.00412 | 12.06340 | 34996 ft | 446 kts | 2° |
| 2026-05-07 09:25 | 62.06563 | 12.08001 | 35005 ft | 448 kts | 2° |
| 2026-05-07 09:26 | 62.12740 | 12.09681 | 35005 ft | 448 kts | 2° |
| 2026-05-07 09:26 | 62.18893 | 12.11365 | 34995 ft | 448 kts | 2° |
| 2026-05-07 09:27 | 62.25053 | 12.13054 | 34986 ft | 449 kts | 2° |
| 2026-05-07 09:28 | 62.34283 | 12.15600 | 34975 ft | 448 kts | 2° |
| 2026-05-07 09:28 | 62.40434 | 12.17304 | 34976 ft | 448 kts | 2° |
| 2026-05-07 09:29 | 62.46571 | 12.19659 | 34971 ft | 452 kts | 7° |
| 2026-05-07 09:29 | 62.52681 | 12.22697 | 34965 ft | 454 kts | 8° |
| 2026-05-07 09:30 | 62.58791 | 12.25798 | 34959 ft | 453 kts | 8° |
| 2026-05-07 09:30 | 62.64899 | 12.28898 | 34968 ft | 453 kts | 8° |
| 2026-05-07 09:31 | 62.70969 | 12.31981 | 34965 ft | 453 kts | 8° |
| 2026-05-07 09:31 | 62.77088 | 12.35098 | 34977 ft | 453 kts | 8° |
| 2026-05-07 09:32 | 62.83200 | 12.38226 | 34969 ft | 454 kts | 8° |
| 2026-05-07 09:32 | 62.89315 | 12.41368 | 34957 ft | 454 kts | 8° |
| 2026-05-07 09:33 | 62.95426 | 12.44520 | 34951 ft | 454 kts | 8° |
| 2026-05-07 09:33 | 63.01541 | 12.47688 | 34950 ft | 454 kts | 8° |
| 2026-05-07 09:34 | 63.07652 | 12.50867 | 34966 ft | 454 kts | 8° |
| 2026-05-07 09:34 | 63.13768 | 12.54063 | 34985 ft | 454 kts | 8° |
| 2026-05-07 09:35 | 63.19880 | 12.57269 | 35004 ft | 454 kts | 8° |
| 2026-05-07 09:35 | 63.25994 | 12.60491 | 35019 ft | 454 kts | 8° |
| 2026-05-07 09:36 | 63.32110 | 12.63729 | 35031 ft | 454 kts | 8° |
| 2026-05-07 09:36 | 63.38242 | 12.66991 | 35035 ft | 455 kts | 9° |
| 2026-05-07 09:37 | 63.44362 | 12.70259 | 35036 ft | 455 kts | 9° |
| 2026-05-07 09:37 | 63.50481 | 12.73541 | 35038 ft | 455 kts | 9° |
| 2026-05-07 09:38 | 63.56608 | 12.76843 | 35041 ft | 456 kts | 9° |
| 2026-05-07 09:38 | 63.62737 | 12.80160 | 35035 ft | 456 kts | 10° |
| 2026-05-07 09:39 | 63.68868 | 12.83494 | 35029 ft | 456 kts | 10° |
| 2026-05-07 09:39 | 63.75004 | 12.86844 | 35023 ft | 456 kts | 10° |
| 2026-05-07 09:40 | 63.81151 | 12.90216 | 35028 ft | 456 kts | 10° |
| 2026-05-07 09:40 | 63.87249 | 12.93575 | 35020 ft | 456 kts | 10° |
| 2026-05-07 09:41 | 63.93378 | 12.96967 | 35011 ft | 455 kts | 10° |
| 2026-05-07 09:41 | 63.99503 | 13.00372 | 35002 ft | 455 kts | 10° |
| 2026-05-07 09:42 | 64.05627 | 13.03791 | 34998 ft | 456 kts | 10° |
| 2026-05-07 09:42 | 64.11750 | 13.07227 | 35000 ft | 456 kts | 10° |
| 2026-05-07 09:43 | 64.17874 | 13.10679 | 35002 ft | 456 kts | 10° |
| 2026-05-07 09:43 | 64.23993 | 13.14143 | 35002 ft | 455 kts | 10° |
| 2026-05-07 09:44 | 64.30106 | 13.17618 | 35000 ft | 455 kts | 10° |
| 2026-05-07 09:44 | 64.36216 | 13.21110 | 35006 ft | 455 kts | 11° |
| 2026-05-07 09:45 | 64.42330 | 13.24619 | 35015 ft | 455 kts | 11° |
| 2026-05-07 09:45 | 64.48447 | 13.28145 | 35029 ft | 456 kts | 11° |
| 2026-05-07 09:46 | 64.54561 | 13.31688 | 35039 ft | 455 kts | 11° |
| 2026-05-07 09:46 | 64.60671 | 13.35244 | 35037 ft | 455 kts | 11° |
| 2026-05-07 09:47 | 64.66778 | 13.38816 | 35030 ft | 455 kts | 11° |
| 2026-05-07 09:47 | 64.72884 | 13.42406 | 35024 ft | 455 kts | 11° |
| 2026-05-07 09:48 | 64.78990 | 13.46013 | 35019 ft | 455 kts | 11° |
| 2026-05-07 09:48 | 64.85081 | 13.49834 | 35020 ft | 456 kts | 13° |
| 2026-05-07 09:49 | 64.91110 | 13.54272 | 35021 ft | 456 kts | 14° |
| 2026-05-07 09:49 | 64.97125 | 13.58793 | 35023 ft | 456 kts | 14° |
| 2026-05-07 09:50 | 65.03147 | 13.63325 | 35024 ft | 456 kts | 14° |
| 2026-05-07 09:50 | 65.09188 | 13.67882 | 35014 ft | 457 kts | 15° |
| 2026-05-07 09:51 | 65.15193 | 13.72429 | 35000 ft | 456 kts | 15° |
| 2026-05-07 09:51 | 65.21218 | 13.77014 | 34982 ft | 457 kts | 15° |
| 2026-05-07 09:52 | 65.27235 | 13.81614 | 34970 ft | 456 kts | 15° |
| 2026-05-07 09:52 | 65.33261 | 13.86241 | 34984 ft | 456 kts | 15° |
| 2026-05-07 09:53 | 65.39273 | 13.90882 | 35004 ft | 457 kts | 15° |
| 2026-05-07 09:53 | 65.45289 | 13.95548 | 35023 ft | 457 kts | 15° |
| 2026-05-07 09:54 | 65.51304 | 14.00235 | 35040 ft | 457 kts | 15° |
| 2026-05-07 09:54 | 65.57310 | 14.04940 | 35043 ft | 456 kts | 15° |
| 2026-05-07 09:55 | 65.63313 | 14.09663 | 35028 ft | 456 kts | 15° |
| 2026-05-07 09:55 | 65.69314 | 14.14406 | 34997 ft | 456 kts | 16° |
| 2026-05-07 09:56 | 65.75318 | 14.19178 | 34950 ft | 457 kts | 16° |
| 2026-05-07 09:56 | 65.81329 | 14.23978 | 34906 ft | 457 kts | 16° |
| 2026-05-07 09:57 | 65.87341 | 14.28802 | 34880 ft | 458 kts | 16° |
| 2026-05-07 09:57 | 65.93349 | 14.33650 | 34880 ft | 457 kts | 16° |
| 2026-05-07 09:58 | 65.99350 | 14.38514 | 34882 ft | 456 kts | 16° |
| 2026-05-07 09:58 | 66.05341 | 14.43393 | 34910 ft | 456 kts | 16° |
| 2026-05-07 09:59 | 66.11337 | 14.48297 | 34941 ft | 457 kts | 16° |
| 2026-05-07 09:59 | 66.17331 | 14.53228 | 34971 ft | 457 kts | 16° |
| 2026-05-07 10:00 | 66.23324 | 14.58183 | 34985 ft | 457 kts | 16° |
| 2026-05-07 10:00 | 66.29314 | 14.63163 | 34998 ft | 457 kts | 16° |
| 2026-05-07 10:01 | 66.35300 | 14.68163 | 34998 ft | 456 kts | 17° |
| 2026-05-07 10:01 | 66.41285 | 14.73184 | 34988 ft | 456 kts | 17° |
| 2026-05-07 10:02 | 66.47240 | 14.78206 | 34982 ft | 456 kts | 17° |
| 2026-05-07 10:02 | 66.53236 | 14.83290 | 34981 ft | 457 kts | 17° |
| 2026-05-07 10:03 | 66.59237 | 14.88402 | 34976 ft | 456 kts | 17° |
| 2026-05-07 10:03 | 66.65212 | 14.93523 | 34972 ft | 456 kts | 17° |
| 2026-05-07 10:04 | 66.71185 | 14.98666 | 34970 ft | 456 kts | 17° |
| 2026-05-07 10:04 | 66.77160 | 15.03837 | 34962 ft | 457 kts | 17° |
| 2026-05-07 10:05 | 66.83137 | 15.09036 | 34956 ft | 457 kts | 17° |
| 2026-05-07 10:05 | 66.89116 | 15.14262 | 34958 ft | 457 kts | 17° |
| 2026-05-07 10:06 | 66.95100 | 15.19518 | 34598 ft | 456 kts | 17° |
| 2026-05-07 10:06 | 66.98088 | 15.22153 | 33843 ft | 462 kts | 18° |
| 2026-05-07 10:06 | 67.01108 | 15.24822 | 33229 ft | 463 kts | 18° |
| 2026-05-07 10:06 | 67.04121 | 15.27495 | 32831 ft | 460 kts | 18° |
| 2026-05-07 10:07 | 67.07102 | 15.30149 | 32469 ft | 454 kts | 18° |
| 2026-05-07 10:07 | 67.10055 | 15.32785 | 32139 ft | 449 kts | 18° |
| 2026-05-07 10:07 | 67.12978 | 15.35398 | 31810 ft | 445 kts | 18° |
| 2026-05-07 10:07 | 67.15870 | 15.37990 | 31472 ft | 441 kts | 18° |
| 2026-05-07 10:08 | 67.18737 | 15.40566 | 31128 ft | 438 kts | 18° |
| 2026-05-07 10:08 | 67.21578 | 15.43126 | 30764 ft | 434 kts | 18° |
| 2026-05-07 10:08 | 67.24393 | 15.45668 | 30353 ft | 430 kts | 18° |
| 2026-05-07 10:08 | 67.27185 | 15.48195 | 29931 ft | 426 kts | 18° |
| 2026-05-07 10:09 | 67.29953 | 15.50706 | 29513 ft | 423 kts | 18° |
| 2026-05-07 10:09 | 67.32697 | 15.53202 | 29083 ft | 419 kts | 18° |
| 2026-05-07 10:09 | 67.35419 | 15.55683 | 28641 ft | 416 kts | 18° |
| 2026-05-07 10:09 | 67.38117 | 15.58151 | 28200 ft | 413 kts | 18° |
| 2026-05-07 10:10 | 67.40795 | 15.60604 | 27754 ft | 409 kts | 18° |
| 2026-05-07 10:10 | 67.43452 | 15.63045 | 27307 ft | 406 kts | 18° |
| 2026-05-07 10:10 | 67.46089 | 15.65473 | 26850 ft | 402 kts | 19° |
| 2026-05-07 10:10 | 67.48700 | 15.67880 | 26345 ft | 399 kts | 19° |
| 2026-05-07 10:11 | 67.51288 | 15.70274 | 25830 ft | 395 kts | 19° |
| 2026-05-07 10:11 | 67.53851 | 15.72651 | 25298 ft | 392 kts | 19° |
| 2026-05-07 10:11 | 67.56391 | 15.75014 | 24713 ft | 388 kts | 19° |
| 2026-05-07 10:11 | 67.58909 | 15.77361 | 24138 ft | 385 kts | 19° |
| 2026-05-07 10:12 | 67.61403 | 15.79692 | 23564 ft | 381 kts | 19° |
| 2026-05-07 10:12 | 67.63877 | 15.82008 | 22989 ft | 378 kts | 19° |
| 2026-05-07 10:12 | 67.66330 | 15.84308 | 22427 ft | 375 kts | 19° |
| 2026-05-07 10:12 | 67.68761 | 15.86593 | 21881 ft | 372 kts | 19° |
| 2026-05-07 10:13 | 67.71172 | 15.88864 | 21334 ft | 369 kts | 19° |
| 2026-05-07 10:13 | 67.73552 | 15.91111 | 20979 ft | 361 kts | 19° |
| 2026-05-07 10:13 | 67.75873 | 15.93307 | 20697 ft | 352 kts | 19° |
| 2026-05-07 10:13 | 67.78136 | 15.95453 | 20418 ft | 345 kts | 19° |
| 2026-05-07 10:14 | 67.80376 | 15.97580 | 20138 ft | 343 kts | 19° |
| 2026-05-07 10:14 | 67.82607 | 15.99703 | 19860 ft | 342 kts | 18° |
| 2026-05-07 10:14 | 67.84827 | 16.01822 | 19583 ft | 340 kts | 18° |
| 2026-05-07 10:14 | 67.87037 | 16.03936 | 19294 ft | 339 kts | 18° |
| 2026-05-07 10:15 | 67.89238 | 16.06043 | 19004 ft | 338 kts | 18° |
| 2026-05-07 10:15 | 67.91431 | 16.08143 | 18724 ft | 336 kts | 18° |
| 2026-05-07 10:15 | 67.93642 | 16.09992 | 18439 ft | 334 kts | 13° |
| 2026-05-07 10:15 | 67.95882 | 16.11399 | 18149 ft | 332 kts | 10° |
| 2026-05-07 10:16 | 67.98133 | 16.12554 | 17861 ft | 331 kts | 9° |
| 2026-05-07 10:16 | 68.00378 | 16.13658 | 17576 ft | 329 kts | 9° |
| 2026-05-07 10:16 | 68.02615 | 16.14757 | 17303 ft | 328 kts | 8° |
| 2026-05-07 10:16 | 68.04842 | 16.15859 | 17039 ft | 326 kts | 9° |
| 2026-05-07 10:17 | 68.07058 | 16.16960 | 16786 ft | 325 kts | 9° |
| 2026-05-07 10:17 | 68.09266 | 16.18063 | 16550 ft | 324 kts | 9° |
| 2026-05-07 10:17 | 68.11473 | 16.19170 | 16285 ft | 324 kts | 9° |
| 2026-05-07 10:17 | 68.13672 | 16.20278 | 15948 ft | 322 kts | 9° |
| 2026-05-07 10:18 | 68.15860 | 16.21384 | 15581 ft | 321 kts | 9° |
| 2026-05-07 10:18 | 68.18033 | 16.22485 | 15195 ft | 318 kts | 9° |
| 2026-05-07 10:18 | 68.20191 | 16.23579 | 14819 ft | 316 kts | 8° |
| 2026-05-07 10:18 | 68.22335 | 16.24668 | 14440 ft | 314 kts | 8° |
| 2026-05-07 10:19 | 68.24465 | 16.25751 | 14079 ft | 312 kts | 9° |
| 2026-05-07 10:19 | 68.26582 | 16.26830 | 13705 ft | 310 kts | 9° |
| 2026-05-07 10:19 | 68.28684 | 16.27902 | 13339 ft | 308 kts | 9° |
| 2026-05-07 10:19 | 68.30773 | 16.28973 | 12969 ft | 306 kts | 9° |
| 2026-05-07 10:20 | 68.32848 | 16.30039 | 12606 ft | 304 kts | 9° |
| 2026-05-07 10:20 | 68.34910 | 16.31099 | 12235 ft | 302 kts | 8° |
| 2026-05-07 10:20 | 68.36958 | 16.32153 | 11878 ft | 300 kts | 8° |
| 2026-05-07 10:20 | 68.38995 | 16.33157 | 11514 ft | 298 kts | 6° |
| 2026-05-07 10:21 | 68.41035 | 16.33723 | 11153 ft | 295 kts | 0° |
| 2026-05-07 10:21 | 68.43066 | 16.33811 | 10803 ft | 292 kts | 357° |
| 2026-05-07 10:21 | 68.45081 | 16.33754 | 10450 ft | 290 kts | 357° |
| 2026-05-07 10:21 | 68.47087 | 16.33675 | 10093 ft | 288 kts | 357° |
| 2026-05-07 10:22 | 68.49059 | 16.33603 | 9938 ft | 279 kts | 357° |
| 2026-05-07 10:22 | 68.50983 | 16.33540 | 9643 ft | 277 kts | 357° |
| 2026-05-07 10:22 | 68.52898 | 16.33481 | 9303 ft | 275 kts | 357° |
| 2026-05-07 10:22 | 68.54796 | 16.33425 | 8978 ft | 273 kts | 357° |
| 2026-05-07 10:23 | 68.56682 | 16.33371 | 8656 ft | 272 kts | 357° |
| 2026-05-07 10:23 | 68.58555 | 16.33317 | 8330 ft | 270 kts | 357° |
| 2026-05-07 10:23 | 68.60417 | 16.33264 | 8005 ft | 268 kts | 357° |
| 2026-05-07 10:23 | 68.62270 | 16.33210 | 7696 ft | 267 kts | 357° |
| 2026-05-07 10:24 | 68.64111 | 16.33156 | 7378 ft | 265 kts | 357° |
| 2026-05-07 10:24 | 68.65942 | 16.33102 | 7060 ft | 264 kts | 357° |
| 2026-05-07 10:24 | 68.67764 | 16.33051 | 6735 ft | 262 kts | 357° |
| 2026-05-07 10:24 | 68.69578 | 16.32999 | 6429 ft | 261 kts | 356° |
| 2026-05-07 10:25 | 68.71367 | 16.32976 | 6248 ft | 253 kts | 0° |
| 2026-05-07 10:25 | 68.73006 | 16.34303 | 6121 ft | 247 kts | 35° |
| 2026-05-07 10:25 | 68.74057 | 16.37910 | 5906 ft | 245 kts | 69° |
| 2026-05-07 10:25 | 68.74313 | 16.42482 | 5635 ft | 242 kts | 89° |
| 2026-05-07 10:26 | 68.74333 | 16.47104 | 5358 ft | 242 kts | 90° |
| 2026-05-07 10:26 | 68.74362 | 16.51708 | 5085 ft | 241 kts | 89° |
| 2026-05-07 10:26 | 68.74411 | 16.56297 | 4813 ft | 240 kts | 89° |
| 2026-05-07 10:26 | 68.74253 | 16.60798 | 4531 ft | 236 kts | 113° |
| 2026-05-07 10:27 | 68.73321 | 16.64296 | 4427 ft | 226 kts | 146° |
| 2026-05-07 10:27 | 68.71909 | 16.65799 | 4227 ft | 216 kts | 176° |
| 2026-05-07 10:27 | 68.70439 | 16.65862 | 4070 ft | 208 kts | 183° |
| 2026-05-07 10:27 | 68.69026 | 16.65764 | 3987 ft | 198 kts | 182° |
| 2026-05-07 10:28 | 68.67658 | 16.65766 | 3987 ft | 197 kts | 181° |
| 2026-05-07 10:28 | 68.66323 | 16.65854 | 4045 ft | 186 kts | 180° |
| 2026-05-07 10:28 | 68.65050 | 16.65981 | 3770 ft | 183 kts | 179° |
| 2026-05-07 10:28 | 68.63790 | 16.66124 | 3474 ft | 181 kts | 179° |
| 2026-05-07 10:29 | 68.62541 | 16.66270 | 3179 ft | 180 kts | 179° |
| 2026-05-07 10:29 | 68.61301 | 16.66415 | 2879 ft | 179 kts | 178° |
| 2026-05-07 10:29 | 68.60066 | 16.66558 | 2570 ft | 178 kts | 178° |
| 2026-05-07 10:30 | 68.57642 | 16.66836 | 1943 ft | 168 kts | 178° |
| 2026-05-07 10:30 | 68.56504 | 16.66967 | 1652 ft | 161 kts | 178° |
| 2026-05-07 10:30 | 68.55435 | 16.67092 | 1400 ft | 149 kts | 179° |
| 2026-05-07 10:30 | 68.54437 | 16.67208 | 1133 ft | 140 kts | 179° |
| 2026-05-07 10:31 | 68.53503 | 16.67316 | 892 ft | 130 kts | 180° |
| 2026-05-07 10:31 | 68.52607 | 16.67418 | 683 ft | 129 kts | 180° |
| 2026-05-07 10:31 | 68.51715 | 16.67525 | 409 ft | 128 kts | 180° |
| 2026-05-07 10:31 | 68.50832 | 16.67626 | 223 ft | 127 kts | 181° |
| 2026-05-07 10:32 | 68.49950 | 16.67724 | 74 ft | 123 kts | 179° |
| 2026-05-07 10:32 | 68.49204 | 16.67803 | 68 ft | 85 kts | 178° |
| 2026-05-07 10:32 | 68.48783 | 16.67856 | 68 ft | 36 kts | 177° |
| 2026-05-07 10:32 | 68.48650 | 16.67873 | 69 ft | 14 kts | 177° |
| 2026-05-07 10:33 | 68.48543 | 16.67885 | 69 ft | 15 kts | 178° |
| 2026-05-07 10:33 | 68.48447 | 16.67955 | 71 ft | 13 kts | 120° |
| 2026-05-07 10:33 | 68.48443 | 16.68152 | 71 ft | 0 kts | 88° |
| 2026-05-07 10:40 | 68.48443 | 16.68154 | 71 ft | 0 kts | 88° |
| 2026-05-07 10:41 | 68.48444 | 16.68201 | 71 ft | 3 kts | 70° |
| 2026-05-07 10:41 | 68.48476 | 16.68250 | 71 ft | 6 kts | 10° |
| 2026-05-07 10:41 | 68.48535 | 16.68247 | 71 ft | 10 kts | 358° |
| 2026-05-07 10:41 | 68.48618 | 16.68235 | 71 ft | 13 kts | 357° |
| 2026-05-07 10:42 | 68.48718 | 16.68249 | 71 ft | 14 kts | 34° |
| 2026-05-07 10:42 | 68.48748 | 16.68496 | 71 ft | 13 kts | 56° |
| 2026-05-07 10:42 | 68.48822 | 16.68454 | 71 ft | 12 kts | 317° |
| 2026-05-07 10:42 | 68.48897 | 16.68382 | 71 ft | 10 kts | 301° |
| 2026-05-07 10:43 | 68.48946 | 16.68352 | 71 ft | 9 kts | 39° |
| 2026-05-07 10:43 | 68.48971 | 16.68416 | 71 ft | 2 kts | 42° |
| 2026-05-07 10:43 | 68.48973 | 16.68420 | 71 ft | 0 kts | 42° |